<?xml version="1.0" encoding="UTF-8" standalone="no" ?>
<gpx xmlns="http://www.topografix.com/GPX/1/1" xmlns:xsi="http://www.w3.org/2001/XMLSchema-instance" xsi:schemaLocation="http://www.topografix.com/GPX/1/1 http://www.topografix.com/GPX/1/1/gpx.xsd" version="1.1" creator="VisuGPX - https://www.visugpx.com">
  <metadata>
    <name>En passant par le pont suspendu de l'Épine</name>
  </metadata>
  <wpt lat="49.79425" lon="5.06401">
    <ele>229</ele>
    <name><![CDATA[Pont de Cordemoy]]></name>
  </wpt>
  <wpt lat="49.79928" lon="5.06537">
    <ele>323</ele>
    <name><![CDATA[Fourche après 2d Point de Vue]]></name>
  </wpt>
  <wpt lat="49.80098" lon="5.06215">
    <ele>351</ele>
    <name><![CDATA[Fourche]]></name>
  </wpt>
  <wpt lat="49.80472" lon="5.04936">
    <ele>306</ele>
    <name><![CDATA[Sentier dans virage]]></name>
  </wpt>
  <wpt lat="49.80476" lon="5.04521">
    <ele>229</ele>
    <name><![CDATA[Route Moulin de l'Epine]]></name>
  </wpt>
  <wpt lat="49.80178" lon="5.04692">
    <ele>245</ele>
    <name><![CDATA[Lieu-dit Broco]]></name>
  </wpt>
  <wpt lat="49.79427" lon="5.04037">
    <ele>221</ele>
    <name><![CDATA[Sentier vers rochers]]></name>
  </wpt>
  <wpt lat="49.79386" lon="5.04008">
    <ele>229</ele>
    <name><![CDATA[Sentier après pont ruisseau des Curnais]]></name>
  </wpt>
  <wpt lat="49.79281" lon="5.03937">
    <ele>271</ele>
    <name><![CDATA[Fourche sentier bouillon]]></name>
  </wpt>
  <wpt lat="49.79193" lon="5.04081">
    <ele>238</ele>
    <name><![CDATA[Sentier à droite avant la Semois]]></name>
  </wpt>
  <wpt lat="49.79186" lon="5.04085">
    <ele>239</ele>
    <name><![CDATA[Senteir avant la semois.]]></name>
  </wpt>
  <wpt lat="49.79143" lon="5.04152">
    <ele>248</ele>
    <name><![CDATA[Intersection ]]></name>
  </wpt>
  <wpt lat="49.79099" lon="5.04075">
    <ele>261</ele>
    <name><![CDATA[Fourche 34 35]]></name>
  </wpt>
  <wpt lat="49.78874" lon="5.04163">
    <ele>292</ele>
    <name><![CDATA[Croisement à gauche ]]></name>
  </wpt>
  <wpt lat="49.77987" lon="5.03629">
    <ele>373</ele>
    <name><![CDATA[Carrefour (pas sur la carte) coin coupe à blanc]]></name>
  </wpt>
  <wpt lat="49.78029" lon="5.04773">
    <ele>333</ele>
    <name><![CDATA[ruisseau]]></name>
  </wpt>
  <wpt lat="49.78827" lon="5.04961">
    <ele>316</ele>
    <name><![CDATA[Jonction chemin forestier]]></name>
  </wpt>
  <wpt lat="49.78595" lon="5.05218">
    <ele>333</ele>
    <name><![CDATA[L'arboretum geographique]]></name>
  </wpt>
  <wpt lat="49.78468" lon="5.05498">
    <ele>333</ele>
    <name><![CDATA[Fourche panneau]]></name>
  </wpt>
  <wpt lat="49.78626" lon="5.05631">
    <ele>307</ele>
    <name><![CDATA[Fourche gauche ]]></name>
  </wpt>
  <wpt lat="49.7876" lon="5.05966">
    <ele>312</ele>
    <name><![CDATA[Route]]></name>
  </wpt>
  <wpt lat="49.78941" lon="5.06278">
    <ele>292</ele>
    <name><![CDATA[Abri La Ramonette]]></name>
  </wpt>
  <wpt lat="49.79427" lon="5.064">
    <ele>229</ele>
    <name><![CDATA[Pont de Cordemoy]]></name>
  </wpt>
  <trk>
    <name><![CDATA[En passant par le pont suspendu de l'Épine]]></name>
    <trkseg>
      <trkpt lat="49.79425" lon="5.06401">
        <ele>229</ele>
        <time>2020-11-25T10:16:14+01:00</time>
      </trkpt>
      <trkpt lat="49.7944" lon="5.06399">
        <ele>230</ele>
        <time>2020-11-25T10:26:09+01:00</time>
      </trkpt>
      <trkpt lat="49.79444" lon="5.06406">
        <ele>229</ele>
        <time>2021-06-05T15:51:36+02:00</time>
      </trkpt>
      <trkpt lat="49.79457" lon="5.06398">
        <ele>232</ele>
        <time>2020-11-25T10:27:18+01:00</time>
      </trkpt>
      <trkpt lat="49.79447" lon="5.06383">
        <ele>236</ele>
        <time>2020-11-25T10:27:55+01:00</time>
      </trkpt>
      <trkpt lat="49.7944" lon="5.06379">
        <ele>236</ele>
        <time>2021-06-05T15:51:51+02:00</time>
      </trkpt>
      <trkpt lat="49.7943" lon="5.0636">
        <ele>240</ele>
        <time>2020-11-25T10:28:23+01:00</time>
      </trkpt>
      <trkpt lat="49.79435" lon="5.06355">
        <ele>242</ele>
        <time>2021-06-05T15:52:01+02:00</time>
      </trkpt>
      <trkpt lat="49.79458" lon="5.06359">
        <ele>245</ele>
        <time>2020-11-25T10:29:13+01:00</time>
      </trkpt>
      <trkpt lat="49.79451" lon="5.06326">
        <ele>254</ele>
        <time>2020-11-25T10:31:05+01:00</time>
      </trkpt>
      <trkpt lat="49.79477" lon="5.06332">
        <ele>259</ele>
        <time>2021-06-05T15:52:16+02:00</time>
      </trkpt>
      <trkpt lat="49.79461" lon="5.06292">
        <ele>266</ele>
        <time>2021-06-05T15:52:21+02:00</time>
      </trkpt>
      <trkpt lat="49.79464" lon="5.06285">
        <ele>269</ele>
        <time>2020-11-25T10:34:21+01:00</time>
      </trkpt>
      <trkpt lat="49.79483" lon="5.06297">
        <ele>271</ele>
        <time>2021-06-05T15:52:31+02:00</time>
      </trkpt>
      <trkpt lat="49.79487" lon="5.06293">
        <ele>273</ele>
        <time>2020-11-25T10:35:30+01:00</time>
      </trkpt>
      <trkpt lat="49.7948" lon="5.0626">
        <ele>281</ele>
        <time>2021-06-05T15:52:41+02:00</time>
      </trkpt>
      <trkpt lat="49.79482" lon="5.06255">
        <ele>284</ele>
        <time>2021-06-05T15:52:46+02:00</time>
      </trkpt>
      <trkpt lat="49.79493" lon="5.06257">
        <ele>286</ele>
        <time>2021-06-05T15:52:51+02:00</time>
      </trkpt>
      <trkpt lat="49.79509" lon="5.06272">
        <ele>286</ele>
        <time>2021-06-05T15:52:56+02:00</time>
      </trkpt>
      <trkpt lat="49.79496" lon="5.06232">
        <ele>293</ele>
        <time>2021-06-05T15:53:01+02:00</time>
      </trkpt>
      <trkpt lat="49.79515" lon="5.06231">
        <ele>299</ele>
        <time>2021-06-05T15:53:06+02:00</time>
      </trkpt>
      <trkpt lat="49.79534" lon="5.06248">
        <ele>301</ele>
        <time>2020-11-25T10:35:35+01:00</time>
      </trkpt>
      <trkpt lat="49.79545" lon="5.06253">
        <ele>302</ele>
        <time>2020-11-25T10:35:39+01:00</time>
      </trkpt>
      <trkpt lat="49.79538" lon="5.06231">
        <ele>305</ele>
        <time>2020-11-25T10:35:47+01:00</time>
      </trkpt>
      <trkpt lat="49.79521" lon="5.06184">
        <ele>309</ele>
        <time>2020-11-25T10:35:53+01:00</time>
      </trkpt>
      <trkpt lat="49.79525" lon="5.06167">
        <ele>314</ele>
        <time>2021-06-05T15:53:31+02:00</time>
      </trkpt>
      <trkpt lat="49.79532" lon="5.06169">
        <ele>316</ele>
        <time>2021-06-05T15:53:36+02:00</time>
      </trkpt>
      <trkpt lat="49.79552" lon="5.06185">
        <ele>320</ele>
        <time>2021-06-05T15:53:41+02:00</time>
      </trkpt>
      <trkpt lat="49.79565" lon="5.06198">
        <ele>321</ele>
        <time>2020-11-25T10:37:35+01:00</time>
      </trkpt>
      <trkpt lat="49.79576" lon="5.06215">
        <ele>321</ele>
        <time>2020-11-25T10:38:50+01:00</time>
      </trkpt>
      <trkpt lat="49.79592" lon="5.06253">
        <ele>314</ele>
        <time>2021-06-05T15:53:56+02:00</time>
      </trkpt>
      <trkpt lat="49.79615" lon="5.06283">
        <ele>304</ele>
        <time>2021-06-05T15:54:01+02:00</time>
      </trkpt>
      <trkpt lat="49.79608" lon="5.06302">
        <ele>295</ele>
        <time>2020-11-25T10:39:34+01:00</time>
      </trkpt>
      <trkpt lat="49.79617" lon="5.06283">
        <ele>305</ele>
        <time>2021-06-05T15:54:11+02:00</time>
      </trkpt>
      <trkpt lat="49.79624" lon="5.06273">
        <ele>311</ele>
        <time>2020-11-25T10:39:44+01:00</time>
      </trkpt>
      <trkpt lat="49.7964" lon="5.06264">
        <ele>317</ele>
        <time>2020-11-25T10:40:02+01:00</time>
      </trkpt>
      <trkpt lat="49.79664" lon="5.06261">
        <ele>323</ele>
        <time>2020-11-25T10:40:45+01:00</time>
      </trkpt>
      <trkpt lat="49.79689" lon="5.06262">
        <ele>326</ele>
        <time>2020-11-25T10:40:58+01:00</time>
      </trkpt>
      <trkpt lat="49.79701" lon="5.06266">
        <ele>326</ele>
        <time>2020-11-25T10:41:42+01:00</time>
      </trkpt>
      <trkpt lat="49.79713" lon="5.06265">
        <ele>328</ele>
        <time>2021-06-05T15:54:41+02:00</time>
      </trkpt>
      <trkpt lat="49.79727" lon="5.06272">
        <ele>328</ele>
        <time>2020-11-25T10:42:10+01:00</time>
      </trkpt>
      <trkpt lat="49.79741" lon="5.06275">
        <ele>329</ele>
        <time>2020-11-25T10:42:40+01:00</time>
      </trkpt>
      <trkpt lat="49.79749" lon="5.0629">
        <ele>325</ele>
        <time>2021-06-05T15:54:56+02:00</time>
      </trkpt>
      <trkpt lat="49.79758" lon="5.06287">
        <ele>329</ele>
        <time>2020-11-25T10:45:52+01:00</time>
      </trkpt>
      <trkpt lat="49.79768" lon="5.06311">
        <ele>323</ele>
        <time>2020-11-25T10:46:12+01:00</time>
      </trkpt>
      <trkpt lat="49.79795" lon="5.06327">
        <ele>327</ele>
        <time>2020-11-25T10:46:23+01:00</time>
      </trkpt>
      <trkpt lat="49.79803" lon="5.06351">
        <ele>321</ele>
        <time>2020-11-25T10:47:09+01:00</time>
      </trkpt>
      <trkpt lat="49.7983" lon="5.06373">
        <ele>322</ele>
        <time>2021-06-05T15:55:21+02:00</time>
      </trkpt>
      <trkpt lat="49.79838" lon="5.06396">
        <ele>318</ele>
        <time>2021-06-05T15:55:26+02:00</time>
      </trkpt>
      <trkpt lat="49.79839" lon="5.06445">
        <ele>301</ele>
        <time>2021-06-05T15:55:31+02:00</time>
      </trkpt>
      <trkpt lat="49.79871" lon="5.06427">
        <ele>322</ele>
        <time>2021-06-05T15:55:36+02:00</time>
      </trkpt>
      <trkpt lat="49.79901" lon="5.06446">
        <ele>332</ele>
        <time>2021-06-05T15:55:41+02:00</time>
      </trkpt>
      <trkpt lat="49.7991" lon="5.06473">
        <ele>330</ele>
        <time>2021-06-05T15:55:46+02:00</time>
      </trkpt>
      <trkpt lat="49.79923" lon="5.06499">
        <ele>332</ele>
        <time>2021-06-05T15:55:51+02:00</time>
      </trkpt>
      <trkpt lat="49.79928" lon="5.06537">
        <ele>323</ele>
        <time>2020-11-25T10:52:16+01:00</time>
      </trkpt>
      <trkpt lat="49.79935" lon="5.06502">
        <ele>336</ele>
        <time>2021-06-05T15:56:01+02:00</time>
      </trkpt>
      <trkpt lat="49.79941" lon="5.0652">
        <ele>333</ele>
        <time>2021-06-05T15:56:06+02:00</time>
      </trkpt>
      <trkpt lat="49.79955" lon="5.06496">
        <ele>345</ele>
        <time>2020-11-25T10:52:49+01:00</time>
      </trkpt>
      <trkpt lat="49.79969" lon="5.06503">
        <ele>349</ele>
        <time>2020-11-25T10:53:36+01:00</time>
      </trkpt>
      <trkpt lat="49.79971" lon="5.06469">
        <ele>353</ele>
        <time>2020-11-25T10:54:01+01:00</time>
      </trkpt>
      <trkpt lat="49.7998" lon="5.06468">
        <ele>357</ele>
        <time>2020-11-25T10:54:26+01:00</time>
      </trkpt>
      <trkpt lat="49.79991" lon="5.065">
        <ele>359</ele>
        <time>2020-11-25T10:57:14+01:00</time>
      </trkpt>
      <trkpt lat="49.8002" lon="5.06515">
        <ele>363</ele>
        <time>2020-11-25T10:57:35+01:00</time>
      </trkpt>
      <trkpt lat="49.80067" lon="5.06473">
        <ele>370</ele>
        <time>2020-11-25T10:57:43+01:00</time>
      </trkpt>
      <trkpt lat="49.80053" lon="5.06339">
        <ele>364</ele>
        <time>2020-11-25T10:57:49+01:00</time>
      </trkpt>
      <trkpt lat="49.80077" lon="5.06316">
        <ele>361</ele>
        <time>2020-11-25T10:57:59+01:00</time>
      </trkpt>
      <trkpt lat="49.80084" lon="5.06281">
        <ele>357</ele>
        <time>2020-11-25T10:58:35+01:00</time>
      </trkpt>
      <trkpt lat="49.80086" lon="5.06245">
        <ele>353</ele>
        <time>2020-11-25T10:58:49+01:00</time>
      </trkpt>
      <trkpt lat="49.80098" lon="5.06215">
        <ele>351</ele>
        <time>2020-11-25T10:59:08+01:00</time>
      </trkpt>
      <trkpt lat="49.80104" lon="5.06181">
        <ele>347</ele>
        <time>2020-11-25T11:00:16+01:00</time>
      </trkpt>
      <trkpt lat="49.80107" lon="5.06146">
        <ele>343</ele>
        <time>2020-11-25T11:00:42+01:00</time>
      </trkpt>
      <trkpt lat="49.80119" lon="5.06114">
        <ele>340</ele>
        <time>2020-11-25T11:00:58+01:00</time>
      </trkpt>
      <trkpt lat="49.80137" lon="5.06092">
        <ele>338</ele>
        <time>2020-11-25T11:01:10+01:00</time>
      </trkpt>
      <trkpt lat="49.80158" lon="5.06082">
        <ele>337</ele>
        <time>2020-11-25T11:01:24+01:00</time>
      </trkpt>
      <trkpt lat="49.80169" lon="5.0607">
        <ele>337</ele>
        <time>2021-06-05T15:57:36+02:00</time>
      </trkpt>
      <trkpt lat="49.80171" lon="5.06048">
        <ele>335</ele>
        <time>2020-11-25T11:01:47+01:00</time>
      </trkpt>
      <trkpt lat="49.80165" lon="5.06014">
        <ele>330</ele>
        <time>2020-11-25T11:02:13+01:00</time>
      </trkpt>
      <trkpt lat="49.80162" lon="5.05981">
        <ele>327</ele>
        <time>2020-11-25T11:02:25+01:00</time>
      </trkpt>
      <trkpt lat="49.80159" lon="5.05945">
        <ele>325</ele>
        <time>2020-11-25T11:02:38+01:00</time>
      </trkpt>
      <trkpt lat="49.80161" lon="5.05908">
        <ele>323</ele>
        <time>2020-11-25T11:02:52+01:00</time>
      </trkpt>
      <trkpt lat="49.80165" lon="5.05872">
        <ele>320</ele>
        <time>2020-11-25T11:03:37+01:00</time>
      </trkpt>
      <trkpt lat="49.80169" lon="5.05841">
        <ele>317</ele>
        <time>2020-11-25T11:03:47+01:00</time>
      </trkpt>
      <trkpt lat="49.80182" lon="5.05808">
        <ele>316</ele>
        <time>2020-11-25T11:03:58+01:00</time>
      </trkpt>
      <trkpt lat="49.80199" lon="5.05776">
        <ele>314</ele>
        <time>2020-11-25T11:04:08+01:00</time>
      </trkpt>
      <trkpt lat="49.80217" lon="5.05755">
        <ele>312</ele>
        <time>2020-11-25T11:04:27+01:00</time>
      </trkpt>
      <trkpt lat="49.80238" lon="5.05736">
        <ele>311</ele>
        <time>2020-11-25T11:04:48+01:00</time>
      </trkpt>
      <trkpt lat="49.80258" lon="5.0572">
        <ele>310</ele>
        <time>2020-11-25T11:05:05+01:00</time>
      </trkpt>
      <trkpt lat="49.80282" lon="5.05717">
        <ele>314</ele>
        <time>2020-11-25T11:05:23+01:00</time>
      </trkpt>
      <trkpt lat="49.80304" lon="5.05712">
        <ele>316</ele>
        <time>2020-11-25T11:05:35+01:00</time>
      </trkpt>
      <trkpt lat="49.80325" lon="5.05698">
        <ele>317</ele>
        <time>2020-11-25T11:06:01+01:00</time>
      </trkpt>
      <trkpt lat="49.80349" lon="5.05678">
        <ele>318</ele>
        <time>2020-11-25T11:06:19+01:00</time>
      </trkpt>
      <trkpt lat="49.80358" lon="5.05654">
        <ele>317</ele>
        <time>2020-11-25T11:06:31+01:00</time>
      </trkpt>
      <trkpt lat="49.80371" lon="5.05626">
        <ele>318</ele>
        <time>2020-11-25T11:06:48+01:00</time>
      </trkpt>
      <trkpt lat="49.80381" lon="5.05581">
        <ele>317</ele>
        <time>2020-11-25T11:07:05+01:00</time>
      </trkpt>
      <trkpt lat="49.80378" lon="5.05552">
        <ele>317</ele>
        <time>2020-11-25T11:07:23+01:00</time>
      </trkpt>
      <trkpt lat="49.80372" lon="5.05517">
        <ele>317</ele>
        <time>2020-11-25T11:07:40+01:00</time>
      </trkpt>
      <trkpt lat="49.80356" lon="5.05483">
        <ele>314</ele>
        <time>2020-11-25T11:07:57+01:00</time>
      </trkpt>
      <trkpt lat="49.80349" lon="5.05457">
        <ele>313</ele>
        <time>2020-11-25T11:08:15+01:00</time>
      </trkpt>
      <trkpt lat="49.80345" lon="5.05427">
        <ele>313</ele>
        <time>2020-11-25T11:08:31+01:00</time>
      </trkpt>
      <trkpt lat="49.80344" lon="5.0539">
        <ele>314</ele>
        <time>2020-11-25T11:08:51+01:00</time>
      </trkpt>
      <trkpt lat="49.8034" lon="5.05354">
        <ele>313</ele>
        <time>2020-11-25T11:09:13+01:00</time>
      </trkpt>
      <trkpt lat="49.8034" lon="5.05317">
        <ele>312</ele>
        <time>2020-11-25T11:09:28+01:00</time>
      </trkpt>
      <trkpt lat="49.80342" lon="5.05282">
        <ele>312</ele>
        <time>2020-11-25T11:09:41+01:00</time>
      </trkpt>
      <trkpt lat="49.80342" lon="5.05249">
        <ele>311</ele>
        <time>2020-11-25T11:09:57+01:00</time>
      </trkpt>
      <trkpt lat="49.80346" lon="5.05215">
        <ele>310</ele>
        <time>2020-11-25T11:10:18+01:00</time>
      </trkpt>
      <trkpt lat="49.8035" lon="5.05177">
        <ele>308</ele>
        <time>2020-11-25T11:10:37+01:00</time>
      </trkpt>
      <trkpt lat="49.8036" lon="5.05141">
        <ele>308</ele>
        <time>2020-11-25T11:10:59+01:00</time>
      </trkpt>
      <trkpt lat="49.80368" lon="5.05111">
        <ele>307</ele>
        <time>2020-11-25T11:11:19+01:00</time>
      </trkpt>
      <trkpt lat="49.80377" lon="5.05078">
        <ele>306</ele>
        <time>2020-11-25T11:11:35+01:00</time>
      </trkpt>
      <trkpt lat="49.80387" lon="5.05044">
        <ele>302</ele>
        <time>2020-11-25T11:11:49+01:00</time>
      </trkpt>
      <trkpt lat="49.80401" lon="5.05014">
        <ele>301</ele>
        <time>2020-11-25T11:12:04+01:00</time>
      </trkpt>
      <trkpt lat="49.80405" lon="5.05005">
        <ele>301</ele>
        <time>2021-06-05T16:00:41+02:00</time>
      </trkpt>
      <trkpt lat="49.80419" lon="5.04994">
        <ele>305</ele>
        <time>2020-11-25T11:12:24+01:00</time>
      </trkpt>
      <trkpt lat="49.80437" lon="5.04983">
        <ele>306</ele>
        <time>2021-06-05T16:00:51+02:00</time>
      </trkpt>
      <trkpt lat="49.80447" lon="5.04973">
        <ele>306</ele>
        <time>2020-11-25T11:12:41+01:00</time>
      </trkpt>
      <trkpt lat="49.80461" lon="5.04946">
        <ele>305</ele>
        <time>2020-11-25T11:13:01+01:00</time>
      </trkpt>
      <trkpt lat="49.80472" lon="5.04936">
        <ele>306</ele>
        <time>2020-11-25T11:13:33+01:00</time>
      </trkpt>
      <trkpt lat="49.80478" lon="5.04905">
        <ele>304</ele>
        <time>2020-11-25T11:15:08+01:00</time>
      </trkpt>
      <trkpt lat="49.80485" lon="5.04871">
        <ele>303</ele>
        <time>2020-11-25T11:15:35+01:00</time>
      </trkpt>
      <trkpt lat="49.80492" lon="5.04839">
        <ele>302</ele>
        <time>2020-11-25T11:17:13+01:00</time>
      </trkpt>
      <trkpt lat="49.80495" lon="5.0481">
        <ele>300</ele>
        <time>2020-11-25T11:17:57+01:00</time>
      </trkpt>
      <trkpt lat="49.805" lon="5.04775">
        <ele>297</ele>
        <time>2020-11-25T11:18:14+01:00</time>
      </trkpt>
      <trkpt lat="49.80501" lon="5.04749">
        <ele>294</ele>
        <time>2021-06-05T16:01:36+02:00</time>
      </trkpt>
      <trkpt lat="49.80507" lon="5.04743">
        <ele>291</ele>
        <time>2021-06-05T16:01:41+02:00</time>
      </trkpt>
      <trkpt lat="49.80511" lon="5.04732">
        <ele>287</ele>
        <time>2020-11-25T11:18:45+01:00</time>
      </trkpt>
      <trkpt lat="49.80518" lon="5.04734">
        <ele>287</ele>
        <time>2021-06-05T16:01:51+02:00</time>
      </trkpt>
      <trkpt lat="49.80522" lon="5.04756">
        <ele>290</ele>
        <time>2021-06-05T16:01:56+02:00</time>
      </trkpt>
      <trkpt lat="49.80532" lon="5.0476">
        <ele>288</ele>
        <time>2020-11-25T11:20:20+01:00</time>
      </trkpt>
      <trkpt lat="49.80539" lon="5.04756">
        <ele>286</ele>
        <time>2021-06-05T16:02:06+02:00</time>
      </trkpt>
      <trkpt lat="49.80545" lon="5.04741">
        <ele>283</ele>
        <time>2021-06-05T16:02:11+02:00</time>
      </trkpt>
      <trkpt lat="49.80541" lon="5.04721">
        <ele>280</ele>
        <time>2020-11-25T11:20:59+01:00</time>
      </trkpt>
      <trkpt lat="49.80548" lon="5.04716">
        <ele>278</ele>
        <time>2021-06-05T16:02:21+02:00</time>
      </trkpt>
      <trkpt lat="49.8055" lon="5.04702">
        <ele>275</ele>
        <time>2021-06-05T16:02:26+02:00</time>
      </trkpt>
      <trkpt lat="49.80546" lon="5.04689">
        <ele>274</ele>
        <time>2021-06-05T16:02:31+02:00</time>
      </trkpt>
      <trkpt lat="49.80534" lon="5.04683">
        <ele>274</ele>
        <time>2021-06-05T16:02:36+02:00</time>
      </trkpt>
      <trkpt lat="49.80533" lon="5.04675">
        <ele>272</ele>
        <time>2020-11-25T11:21:29+01:00</time>
      </trkpt>
      <trkpt lat="49.80538" lon="5.04659">
        <ele>269</ele>
        <time>2021-06-05T16:02:46+02:00</time>
      </trkpt>
      <trkpt lat="49.80547" lon="5.04657">
        <ele>267</ele>
        <time>2021-06-05T16:02:51+02:00</time>
      </trkpt>
      <trkpt lat="49.8055" lon="5.0465">
        <ele>266</ele>
        <time>2021-06-05T16:02:56+02:00</time>
      </trkpt>
      <trkpt lat="49.80546" lon="5.04642">
        <ele>264</ele>
        <time>2021-06-05T16:03:01+02:00</time>
      </trkpt>
      <trkpt lat="49.80537" lon="5.0464">
        <ele>264</ele>
        <time>2020-11-25T11:21:47+01:00</time>
      </trkpt>
      <trkpt lat="49.80537" lon="5.04628">
        <ele>262</ele>
        <time>2021-06-05T16:03:11+02:00</time>
      </trkpt>
      <trkpt lat="49.80528" lon="5.04627">
        <ele>261</ele>
        <time>2021-06-05T16:03:16+02:00</time>
      </trkpt>
      <trkpt lat="49.80525" lon="5.04623">
        <ele>261</ele>
        <time>2020-11-25T11:22:47+01:00</time>
      </trkpt>
      <trkpt lat="49.80535" lon="5.04612">
        <ele>258</ele>
        <time>2021-06-05T16:03:26+02:00</time>
      </trkpt>
      <trkpt lat="49.8053" lon="5.04605">
        <ele>256</ele>
        <time>2021-06-05T16:03:31+02:00</time>
      </trkpt>
      <trkpt lat="49.8052" lon="5.046">
        <ele>255</ele>
        <time>2021-06-05T16:03:36+02:00</time>
      </trkpt>
      <trkpt lat="49.80519" lon="5.04596">
        <ele>254</ele>
        <time>2021-06-05T16:03:41+02:00</time>
      </trkpt>
      <trkpt lat="49.80506" lon="5.0459">
        <ele>252</ele>
        <time>2021-06-05T16:03:46+02:00</time>
      </trkpt>
      <trkpt lat="49.80507" lon="5.04583">
        <ele>250</ele>
        <time>2020-11-25T11:22:58+01:00</time>
      </trkpt>
      <trkpt lat="49.80517" lon="5.04576">
        <ele>249</ele>
        <time>2021-06-05T16:03:56+02:00</time>
      </trkpt>
      <trkpt lat="49.80516" lon="5.04569">
        <ele>247</ele>
        <time>2020-11-25T11:23:28+01:00</time>
      </trkpt>
      <trkpt lat="49.80505" lon="5.04567">
        <ele>246</ele>
        <time>2020-11-25T11:23:50+01:00</time>
      </trkpt>
      <trkpt lat="49.80512" lon="5.04556">
        <ele>244</ele>
        <time>2021-06-05T16:04:11+02:00</time>
      </trkpt>
      <trkpt lat="49.80502" lon="5.04552">
        <ele>242</ele>
        <time>2021-06-05T16:04:16+02:00</time>
      </trkpt>
      <trkpt lat="49.80489" lon="5.0455">
        <ele>239</ele>
        <time>2021-06-05T16:04:21+02:00</time>
      </trkpt>
      <trkpt lat="49.80477" lon="5.04538">
        <ele>233</ele>
        <time>2020-11-25T11:24:06+01:00</time>
      </trkpt>
      <trkpt lat="49.80476" lon="5.04521">
        <ele>229</ele>
        <time>2020-11-25T11:24:40+01:00</time>
      </trkpt>
      <trkpt lat="49.80456" lon="5.04518">
        <ele>225</ele>
        <time>2021-06-05T16:04:36+02:00</time>
      </trkpt>
      <trkpt lat="49.8044" lon="5.04524">
        <ele>222</ele>
        <time>2020-11-25T11:25:01+01:00</time>
      </trkpt>
      <trkpt lat="49.80423" lon="5.04529">
        <ele>219</ele>
        <time>2021-06-05T16:04:46+02:00</time>
      </trkpt>
      <trkpt lat="49.80415" lon="5.04537">
        <ele>219</ele>
        <time>2020-11-25T11:29:19+01:00</time>
      </trkpt>
      <trkpt lat="49.80396" lon="5.04555">
        <ele>222</ele>
        <time>2020-11-25T11:29:35+01:00</time>
      </trkpt>
      <trkpt lat="49.80377" lon="5.04568">
        <ele>222</ele>
        <time>2020-11-25T11:29:59+01:00</time>
      </trkpt>
      <trkpt lat="49.80358" lon="5.04562">
        <ele>221</ele>
        <time>2020-11-25T11:51:03+01:00</time>
      </trkpt>
      <trkpt lat="49.8034" lon="5.04555">
        <ele>221</ele>
        <time>2020-11-25T11:51:49+01:00</time>
      </trkpt>
      <trkpt lat="49.80329" lon="5.04548">
        <ele>223</ele>
        <time>2021-06-05T16:05:16+02:00</time>
      </trkpt>
      <trkpt lat="49.80321" lon="5.04524">
        <ele>227</ele>
        <time>2020-11-25T11:53:44+01:00</time>
      </trkpt>
      <trkpt lat="49.80304" lon="5.04568">
        <ele>229</ele>
        <time>2020-11-25T11:54:27+01:00</time>
      </trkpt>
      <trkpt lat="49.80293" lon="5.046">
        <ele>230</ele>
        <time>2020-11-25T11:54:43+01:00</time>
      </trkpt>
      <trkpt lat="49.80284" lon="5.04623">
        <ele>231</ele>
        <time>2020-11-25T11:55:03+01:00</time>
      </trkpt>
      <trkpt lat="49.80262" lon="5.0465">
        <ele>234</ele>
        <time>2020-11-25T11:55:27+01:00</time>
      </trkpt>
      <trkpt lat="49.80244" lon="5.0467">
        <ele>236</ele>
        <time>2020-11-25T11:55:51+01:00</time>
      </trkpt>
      <trkpt lat="49.80227" lon="5.04684">
        <ele>237</ele>
        <time>2020-11-25T11:56:07+01:00</time>
      </trkpt>
      <trkpt lat="49.802" lon="5.0469">
        <ele>241</ele>
        <time>2020-11-25T11:56:35+01:00</time>
      </trkpt>
      <trkpt lat="49.80178" lon="5.04692">
        <ele>245</ele>
        <time>2020-11-25T11:56:56+01:00</time>
      </trkpt>
      <trkpt lat="49.80166" lon="5.0472">
        <ele>244</ele>
        <time>2020-11-25T11:58:34+01:00</time>
      </trkpt>
      <trkpt lat="49.80161" lon="5.04745">
        <ele>241</ele>
        <time>2020-11-25T11:58:44+01:00</time>
      </trkpt>
      <trkpt lat="49.80153" lon="5.04771">
        <ele>236</ele>
        <time>2020-11-25T11:58:54+01:00</time>
      </trkpt>
      <trkpt lat="49.80133" lon="5.04803">
        <ele>229</ele>
        <time>2020-11-25T11:59:04+01:00</time>
      </trkpt>
      <trkpt lat="49.80111" lon="5.04811">
        <ele>228</ele>
        <time>2020-11-25T11:59:18+01:00</time>
      </trkpt>
      <trkpt lat="49.80089" lon="5.04812">
        <ele>228</ele>
        <time>2020-11-25T12:00:15+01:00</time>
      </trkpt>
      <trkpt lat="49.8007" lon="5.04812">
        <ele>227</ele>
        <time>2020-11-25T12:00:26+01:00</time>
      </trkpt>
      <trkpt lat="49.80048" lon="5.04801">
        <ele>229</ele>
        <time>2020-11-25T12:00:43+01:00</time>
      </trkpt>
      <trkpt lat="49.80025" lon="5.04796">
        <ele>229</ele>
        <time>2020-11-25T12:00:55+01:00</time>
      </trkpt>
      <trkpt lat="49.80002" lon="5.04793">
        <ele>229</ele>
        <time>2020-11-25T12:01:13+01:00</time>
      </trkpt>
      <trkpt lat="49.79981" lon="5.0478">
        <ele>229</ele>
        <time>2020-11-25T12:01:29+01:00</time>
      </trkpt>
      <trkpt lat="49.7995" lon="5.04766">
        <ele>226</ele>
        <time>2020-11-25T12:01:51+01:00</time>
      </trkpt>
      <trkpt lat="49.79939" lon="5.04755">
        <ele>226</ele>
        <time>2020-11-25T12:02:07+01:00</time>
      </trkpt>
      <trkpt lat="49.7992" lon="5.04732">
        <ele>228</ele>
        <time>2020-11-25T12:02:21+01:00</time>
      </trkpt>
      <trkpt lat="49.79902" lon="5.04713">
        <ele>229</ele>
        <time>2020-11-25T12:03:00+01:00</time>
      </trkpt>
      <trkpt lat="49.79887" lon="5.04686">
        <ele>231</ele>
        <time>2020-11-25T12:03:15+01:00</time>
      </trkpt>
      <trkpt lat="49.79872" lon="5.04658">
        <ele>231</ele>
        <time>2020-11-25T12:03:30+01:00</time>
      </trkpt>
      <trkpt lat="49.79856" lon="5.04634">
        <ele>231</ele>
        <time>2020-11-25T12:03:51+01:00</time>
      </trkpt>
      <trkpt lat="49.79846" lon="5.0461">
        <ele>231</ele>
        <time>2020-11-25T12:04:07+01:00</time>
      </trkpt>
      <trkpt lat="49.79832" lon="5.04581">
        <ele>229</ele>
        <time>2020-11-25T12:04:23+01:00</time>
      </trkpt>
      <trkpt lat="49.79818" lon="5.04552">
        <ele>231</ele>
        <time>2020-11-25T12:04:40+01:00</time>
      </trkpt>
      <trkpt lat="49.79806" lon="5.04522">
        <ele>232</ele>
        <time>2020-11-25T12:04:59+01:00</time>
      </trkpt>
      <trkpt lat="49.79798" lon="5.04497">
        <ele>233</ele>
        <time>2020-11-25T12:05:17+01:00</time>
      </trkpt>
      <trkpt lat="49.79787" lon="5.04458">
        <ele>235</ele>
        <time>2020-11-25T12:05:33+01:00</time>
      </trkpt>
      <trkpt lat="49.79778" lon="5.04428">
        <ele>235</ele>
        <time>2020-11-25T12:05:51+01:00</time>
      </trkpt>
      <trkpt lat="49.79769" lon="5.0439">
        <ele>236</ele>
        <time>2020-11-25T12:06:27+01:00</time>
      </trkpt>
      <trkpt lat="49.7976" lon="5.04379">
        <ele>234</ele>
        <time>2020-11-25T12:06:51+01:00</time>
      </trkpt>
      <trkpt lat="49.79739" lon="5.0434">
        <ele>230</ele>
        <time>2020-11-25T12:07:04+01:00</time>
      </trkpt>
      <trkpt lat="49.79725" lon="5.04319">
        <ele>231</ele>
        <time>2020-11-25T12:07:22+01:00</time>
      </trkpt>
      <trkpt lat="49.79712" lon="5.04295">
        <ele>233</ele>
        <time>2020-11-25T12:07:39+01:00</time>
      </trkpt>
      <trkpt lat="49.79691" lon="5.04265">
        <ele>232</ele>
        <time>2020-11-25T12:07:56+01:00</time>
      </trkpt>
      <trkpt lat="49.7968" lon="5.04239">
        <ele>234</ele>
        <time>2020-11-25T12:08:12+01:00</time>
      </trkpt>
      <trkpt lat="49.79663" lon="5.04214">
        <ele>234</ele>
        <time>2020-11-25T12:08:32+01:00</time>
      </trkpt>
      <trkpt lat="49.79647" lon="5.04185">
        <ele>238</ele>
        <time>2020-11-25T12:08:53+01:00</time>
      </trkpt>
      <trkpt lat="49.79633" lon="5.04165">
        <ele>239</ele>
        <time>2020-11-25T12:09:20+01:00</time>
      </trkpt>
      <trkpt lat="49.79613" lon="5.04138">
        <ele>239</ele>
        <time>2020-11-25T12:09:29+01:00</time>
      </trkpt>
      <trkpt lat="49.79593" lon="5.04119">
        <ele>236</ele>
        <time>2020-11-25T12:09:41+01:00</time>
      </trkpt>
      <trkpt lat="49.79574" lon="5.04099">
        <ele>235</ele>
        <time>2020-11-25T12:09:59+01:00</time>
      </trkpt>
      <trkpt lat="49.79565" lon="5.04086">
        <ele>236</ele>
        <time>2020-11-25T12:10:17+01:00</time>
      </trkpt>
      <trkpt lat="49.79537" lon="5.04063">
        <ele>237</ele>
        <time>2020-11-25T12:10:35+01:00</time>
      </trkpt>
      <trkpt lat="49.79514" lon="5.04053">
        <ele>234</ele>
        <time>2020-11-25T12:10:52+01:00</time>
      </trkpt>
      <trkpt lat="49.79497" lon="5.04051">
        <ele>230</ele>
        <time>2020-11-25T12:11:11+01:00</time>
      </trkpt>
      <trkpt lat="49.79472" lon="5.04048">
        <ele>227</ele>
        <time>2020-11-25T12:11:29+01:00</time>
      </trkpt>
      <trkpt lat="49.79447" lon="5.0404">
        <ele>224</ele>
        <time>2020-11-25T12:11:47+01:00</time>
      </trkpt>
      <trkpt lat="49.79427" lon="5.04037">
        <ele>221</ele>
        <time>2020-11-25T12:13:12+01:00</time>
      </trkpt>
      <trkpt lat="49.79403" lon="5.04028">
        <ele>223</ele>
        <time>2020-11-25T12:14:42+01:00</time>
      </trkpt>
      <trkpt lat="49.79383" lon="5.04029">
        <ele>226</ele>
        <time>2021-06-05T16:09:56+02:00</time>
      </trkpt>
      <trkpt lat="49.79388" lon="5.0402">
        <ele>226</ele>
        <time>2020-11-25T12:15:27+01:00</time>
      </trkpt>
      <trkpt lat="49.79386" lon="5.04008">
        <ele>229</ele>
        <time>2021-06-05T16:10:06+02:00</time>
      </trkpt>
      <trkpt lat="49.79394" lon="5.03977">
        <ele>233</ele>
        <time>2020-11-25T12:17:15+01:00</time>
      </trkpt>
      <trkpt lat="49.79398" lon="5.03951">
        <ele>237</ele>
        <time>2020-11-25T12:17:34+01:00</time>
      </trkpt>
      <trkpt lat="49.79409" lon="5.03928">
        <ele>237</ele>
        <time>2021-06-05T16:10:21+02:00</time>
      </trkpt>
      <trkpt lat="49.79407" lon="5.03914">
        <ele>240</ele>
        <time>2021-06-05T16:10:26+02:00</time>
      </trkpt>
      <trkpt lat="49.79399" lon="5.03917">
        <ele>242</ele>
        <time>2020-11-25T12:17:50+01:00</time>
      </trkpt>
      <trkpt lat="49.79391" lon="5.03927">
        <ele>243</ele>
        <time>2020-11-25T12:19:03+01:00</time>
      </trkpt>
      <trkpt lat="49.79357" lon="5.03944">
        <ele>251</ele>
        <time>2020-11-25T12:19:49+01:00</time>
      </trkpt>
      <trkpt lat="49.79353" lon="5.03922">
        <ele>258</ele>
        <time>2020-11-25T12:20:45+01:00</time>
      </trkpt>
      <trkpt lat="49.79339" lon="5.03931">
        <ele>260</ele>
        <time>2021-06-05T16:10:51+02:00</time>
      </trkpt>
      <trkpt lat="49.79338" lon="5.03914">
        <ele>265</ele>
        <time>2020-11-25T12:22:31+01:00</time>
      </trkpt>
      <trkpt lat="49.79332" lon="5.03916">
        <ele>266</ele>
        <time>2021-06-05T16:11:01+02:00</time>
      </trkpt>
      <trkpt lat="49.79324" lon="5.03931">
        <ele>264</ele>
        <time>2021-06-05T16:11:06+02:00</time>
      </trkpt>
      <trkpt lat="49.79319" lon="5.03934">
        <ele>264</ele>
        <time>2021-06-05T16:11:11+02:00</time>
      </trkpt>
      <trkpt lat="49.79319" lon="5.03916">
        <ele>269</ele>
        <time>2021-06-05T16:11:16+02:00</time>
      </trkpt>
      <trkpt lat="49.79309" lon="5.03926">
        <ele>269</ele>
        <time>2021-06-05T16:11:21+02:00</time>
      </trkpt>
      <trkpt lat="49.79308" lon="5.03932">
        <ele>267</ele>
        <time>2020-11-25T12:24:14+01:00</time>
      </trkpt>
      <trkpt lat="49.79304" lon="5.03912">
        <ele>273</ele>
        <time>2021-06-05T16:11:31+02:00</time>
      </trkpt>
      <trkpt lat="49.79297" lon="5.0393">
        <ele>270</ele>
        <time>2021-06-05T16:11:36+02:00</time>
      </trkpt>
      <trkpt lat="49.79295" lon="5.0395">
        <ele>264</ele>
        <time>2021-06-05T16:11:41+02:00</time>
      </trkpt>
      <trkpt lat="49.7929" lon="5.03964">
        <ele>261</ele>
        <time>2021-06-05T16:11:46+02:00</time>
      </trkpt>
      <trkpt lat="49.79287" lon="5.03964">
        <ele>261</ele>
        <time>2020-11-25T12:25:45+01:00</time>
      </trkpt>
      <trkpt lat="49.79281" lon="5.03937">
        <ele>271</ele>
        <time>2020-11-25T12:29:34+01:00</time>
      </trkpt>
      <trkpt lat="49.79274" lon="5.03925">
        <ele>276</ele>
        <time>2021-06-05T16:12:01+02:00</time>
      </trkpt>
      <trkpt lat="49.79266" lon="5.03924">
        <ele>278</ele>
        <time>2021-06-05T16:12:06+02:00</time>
      </trkpt>
      <trkpt lat="49.79261" lon="5.03917">
        <ele>282</ele>
        <time>2021-06-05T16:12:11+02:00</time>
      </trkpt>
      <trkpt lat="49.79244" lon="5.0391">
        <ele>283</ele>
        <time>2020-11-25T12:30:00+01:00</time>
      </trkpt>
      <trkpt lat="49.79244" lon="5.03926">
        <ele>279</ele>
        <time>2021-06-05T16:12:21+02:00</time>
      </trkpt>
      <trkpt lat="49.79246" lon="5.03941">
        <ele>275</ele>
        <time>2021-06-05T16:12:26+02:00</time>
      </trkpt>
      <trkpt lat="49.79253" lon="5.03951">
        <ele>272</ele>
        <time>2020-11-25T12:30:35+01:00</time>
      </trkpt>
      <trkpt lat="49.79253" lon="5.03968">
        <ele>266</ele>
        <time>2021-06-05T16:12:36+02:00</time>
      </trkpt>
      <trkpt lat="49.79255" lon="5.03981">
        <ele>262</ele>
        <time>2020-11-25T12:30:55+01:00</time>
      </trkpt>
      <trkpt lat="49.79249" lon="5.03982">
        <ele>262</ele>
        <time>2021-06-05T16:12:46+02:00</time>
      </trkpt>
      <trkpt lat="49.7923" lon="5.03972">
        <ele>262</ele>
        <time>2020-11-25T12:31:25+01:00</time>
      </trkpt>
      <trkpt lat="49.79222" lon="5.03964">
        <ele>263</ele>
        <time>2020-11-25T12:31:40+01:00</time>
      </trkpt>
      <trkpt lat="49.79222" lon="5.0398">
        <ele>258</ele>
        <time>2020-11-25T12:32:04+01:00</time>
      </trkpt>
      <trkpt lat="49.79229" lon="5.03991">
        <ele>256</ele>
        <time>2021-06-05T16:13:06+02:00</time>
      </trkpt>
      <trkpt lat="49.79234" lon="5.04004">
        <ele>253</ele>
        <time>2021-06-05T16:13:11+02:00</time>
      </trkpt>
      <trkpt lat="49.79231" lon="5.04017">
        <ele>249</ele>
        <time>2021-06-05T16:13:16+02:00</time>
      </trkpt>
      <trkpt lat="49.79237" lon="5.04031">
        <ele>246</ele>
        <time>2020-11-25T12:32:30+01:00</time>
      </trkpt>
      <trkpt lat="49.79227" lon="5.04051">
        <ele>241</ele>
        <time>2020-11-25T12:33:14+01:00</time>
      </trkpt>
      <trkpt lat="49.79202" lon="5.04032">
        <ele>245</ele>
        <time>2020-11-25T12:33:37+01:00</time>
      </trkpt>
      <trkpt lat="49.79206" lon="5.04074">
        <ele>238</ele>
        <time>2021-06-05T16:13:36+02:00</time>
      </trkpt>
      <trkpt lat="49.79197" lon="5.04074">
        <ele>239</ele>
        <time>2020-11-25T12:34:44+01:00</time>
      </trkpt>
      <trkpt lat="49.79193" lon="5.04081">
        <ele>238</ele>
        <time>2020-11-25T12:35:34+01:00</time>
      </trkpt>
      <trkpt lat="49.79186" lon="5.04085">
        <ele>239</ele>
        <time>2020-11-25T12:36:57+01:00</time>
      </trkpt>
      <trkpt lat="49.79164" lon="5.04052">
        <ele>244</ele>
        <time>2020-11-25T12:38:29+01:00</time>
      </trkpt>
      <trkpt lat="49.79161" lon="5.04067">
        <ele>244</ele>
        <time>2021-06-05T16:14:01+02:00</time>
      </trkpt>
      <trkpt lat="49.79154" lon="5.04071">
        <ele>246</ele>
        <time>2020-11-25T12:40:40+01:00</time>
      </trkpt>
      <trkpt lat="49.79165" lon="5.04093">
        <ele>242</ele>
        <time>2021-06-05T16:14:11+02:00</time>
      </trkpt>
      <trkpt lat="49.79168" lon="5.04112">
        <ele>241</ele>
        <time>2020-11-25T12:41:54+01:00</time>
      </trkpt>
      <trkpt lat="49.7916" lon="5.04134">
        <ele>242</ele>
        <time>2021-06-05T16:14:21+02:00</time>
      </trkpt>
      <trkpt lat="49.79143" lon="5.04152">
        <ele>248</ele>
        <time>2020-11-25T12:42:28+01:00</time>
      </trkpt>
      <trkpt lat="49.79141" lon="5.04127">
        <ele>249</ele>
        <time>2020-11-25T12:44:36+01:00</time>
      </trkpt>
      <trkpt lat="49.79143" lon="5.04118">
        <ele>249</ele>
        <time>2021-06-05T16:14:36+02:00</time>
      </trkpt>
      <trkpt lat="49.79141" lon="5.04105">
        <ele>249</ele>
        <time>2021-06-05T16:14:41+02:00</time>
      </trkpt>
      <trkpt lat="49.79119" lon="5.04092">
        <ele>256</ele>
        <time>2020-11-25T12:44:58+01:00</time>
      </trkpt>
      <trkpt lat="49.79099" lon="5.04075">
        <ele>261</ele>
        <time>2020-11-25T12:45:23+01:00</time>
      </trkpt>
      <trkpt lat="49.79082" lon="5.04063">
        <ele>263</ele>
        <time>2020-11-25T12:45:44+01:00</time>
      </trkpt>
      <trkpt lat="49.79052" lon="5.04078">
        <ele>269</ele>
        <time>2020-11-25T12:46:40+01:00</time>
      </trkpt>
      <trkpt lat="49.79025" lon="5.04081">
        <ele>273</ele>
        <time>2020-11-25T12:46:58+01:00</time>
      </trkpt>
      <trkpt lat="49.79004" lon="5.04095">
        <ele>276</ele>
        <time>2020-11-25T12:47:15+01:00</time>
      </trkpt>
      <trkpt lat="49.78983" lon="5.04112">
        <ele>280</ele>
        <time>2020-11-25T12:47:33+01:00</time>
      </trkpt>
      <trkpt lat="49.78963" lon="5.04127">
        <ele>282</ele>
        <time>2020-11-25T12:47:57+01:00</time>
      </trkpt>
      <trkpt lat="49.78942" lon="5.04142">
        <ele>284</ele>
        <time>2020-11-25T12:48:21+01:00</time>
      </trkpt>
      <trkpt lat="49.7892" lon="5.04152">
        <ele>286</ele>
        <time>2020-11-25T12:48:49+01:00</time>
      </trkpt>
      <trkpt lat="49.78898" lon="5.04164">
        <ele>288</ele>
        <time>2020-11-25T12:49:24+01:00</time>
      </trkpt>
      <trkpt lat="49.78874" lon="5.04163">
        <ele>292</ele>
        <time>2020-11-25T12:49:51+01:00</time>
      </trkpt>
      <trkpt lat="49.78884" lon="5.0419">
        <ele>291</ele>
        <time>2020-11-25T12:51:22+01:00</time>
      </trkpt>
      <trkpt lat="49.78898" lon="5.04221">
        <ele>290</ele>
        <time>2020-11-25T12:51:51+01:00</time>
      </trkpt>
      <trkpt lat="49.78873" lon="5.04234">
        <ele>293</ele>
        <time>2020-11-25T12:52:42+01:00</time>
      </trkpt>
      <trkpt lat="49.78843" lon="5.04229">
        <ele>296</ele>
        <time>2020-11-25T12:53:07+01:00</time>
      </trkpt>
      <trkpt lat="49.78826" lon="5.04232">
        <ele>298</ele>
        <time>2020-11-25T12:53:19+01:00</time>
      </trkpt>
      <trkpt lat="49.78806" lon="5.04224">
        <ele>300</ele>
        <time>2020-11-25T12:53:37+01:00</time>
      </trkpt>
      <trkpt lat="49.78783" lon="5.04241">
        <ele>303</ele>
        <time>2020-11-25T12:54:11+01:00</time>
      </trkpt>
      <trkpt lat="49.7876" lon="5.04237">
        <ele>305</ele>
        <time>2020-11-25T12:54:28+01:00</time>
      </trkpt>
      <trkpt lat="49.78734" lon="5.04239">
        <ele>307</ele>
        <time>2020-11-25T12:54:49+01:00</time>
      </trkpt>
      <trkpt lat="49.78712" lon="5.04242">
        <ele>308</ele>
        <time>2020-11-25T12:55:10+01:00</time>
      </trkpt>
      <trkpt lat="49.78691" lon="5.04249">
        <ele>308</ele>
        <time>2020-11-25T12:55:29+01:00</time>
      </trkpt>
      <trkpt lat="49.78667" lon="5.04256">
        <ele>307</ele>
        <time>2020-11-25T12:55:56+01:00</time>
      </trkpt>
      <trkpt lat="49.78649" lon="5.04232">
        <ele>315</ele>
        <time>2020-11-25T12:56:22+01:00</time>
      </trkpt>
      <trkpt lat="49.78625" lon="5.04236">
        <ele>316</ele>
        <time>2020-11-25T12:57:31+01:00</time>
      </trkpt>
      <trkpt lat="49.78601" lon="5.04237">
        <ele>317</ele>
        <time>2020-11-25T12:57:48+01:00</time>
      </trkpt>
      <trkpt lat="49.7858" lon="5.04246">
        <ele>316</ele>
        <time>2020-11-25T12:58:03+01:00</time>
      </trkpt>
      <trkpt lat="49.78557" lon="5.04254">
        <ele>313</ele>
        <time>2020-11-25T12:58:18+01:00</time>
      </trkpt>
      <trkpt lat="49.78534" lon="5.04247">
        <ele>314</ele>
        <time>2020-11-25T12:58:36+01:00</time>
      </trkpt>
      <trkpt lat="49.78512" lon="5.0424">
        <ele>315</ele>
        <time>2020-11-25T12:58:59+01:00</time>
      </trkpt>
      <trkpt lat="49.78491" lon="5.04226">
        <ele>319</ele>
        <time>2020-11-25T12:59:22+01:00</time>
      </trkpt>
      <trkpt lat="49.78468" lon="5.04224">
        <ele>318</ele>
        <time>2020-11-25T12:59:39+01:00</time>
      </trkpt>
      <trkpt lat="49.78451" lon="5.04201">
        <ele>324</ele>
        <time>2020-11-25T12:59:59+01:00</time>
      </trkpt>
      <trkpt lat="49.78439" lon="5.04171">
        <ele>332</ele>
        <time>2020-11-25T13:00:22+01:00</time>
      </trkpt>
      <trkpt lat="49.7842" lon="5.04153">
        <ele>335</ele>
        <time>2020-11-25T13:00:52+01:00</time>
      </trkpt>
      <trkpt lat="49.78398" lon="5.0414">
        <ele>339</ele>
        <time>2020-11-25T13:01:13+01:00</time>
      </trkpt>
      <trkpt lat="49.78377" lon="5.04155">
        <ele>336</ele>
        <time>2020-11-25T13:01:22+01:00</time>
      </trkpt>
      <trkpt lat="49.78355" lon="5.04163">
        <ele>335</ele>
        <time>2020-11-25T13:01:40+01:00</time>
      </trkpt>
      <trkpt lat="49.78333" lon="5.04156">
        <ele>337</ele>
        <time>2020-11-25T13:02:04+01:00</time>
      </trkpt>
      <trkpt lat="49.7831" lon="5.04159">
        <ele>334</ele>
        <time>2020-11-25T13:02:25+01:00</time>
      </trkpt>
      <trkpt lat="49.78287" lon="5.04152">
        <ele>333</ele>
        <time>2020-11-25T13:02:45+01:00</time>
      </trkpt>
      <trkpt lat="49.78267" lon="5.04134">
        <ele>334</ele>
        <time>2020-11-25T13:03:07+01:00</time>
      </trkpt>
      <trkpt lat="49.78252" lon="5.04107">
        <ele>338</ele>
        <time>2020-11-25T13:03:30+01:00</time>
      </trkpt>
      <trkpt lat="49.78237" lon="5.04081">
        <ele>341</ele>
        <time>2020-11-25T13:03:56+01:00</time>
      </trkpt>
      <trkpt lat="49.78218" lon="5.04058">
        <ele>342</ele>
        <time>2020-11-25T13:04:12+01:00</time>
      </trkpt>
      <trkpt lat="49.78202" lon="5.04032">
        <ele>344</ele>
        <time>2020-11-25T13:04:33+01:00</time>
      </trkpt>
      <trkpt lat="49.78185" lon="5.04008">
        <ele>346</ele>
        <time>2020-11-25T13:04:58+01:00</time>
      </trkpt>
      <trkpt lat="49.78167" lon="5.03985">
        <ele>346</ele>
        <time>2020-11-25T13:05:20+01:00</time>
      </trkpt>
      <trkpt lat="49.78153" lon="5.03958">
        <ele>349</ele>
        <time>2020-11-25T13:05:40+01:00</time>
      </trkpt>
      <trkpt lat="49.78132" lon="5.03943">
        <ele>349</ele>
        <time>2020-11-25T13:06:00+01:00</time>
      </trkpt>
      <trkpt lat="49.78114" lon="5.03921">
        <ele>350</ele>
        <time>2020-11-25T13:06:27+01:00</time>
      </trkpt>
      <trkpt lat="49.78097" lon="5.03898">
        <ele>351</ele>
        <time>2020-11-25T13:06:49+01:00</time>
      </trkpt>
      <trkpt lat="49.78089" lon="5.03865">
        <ele>355</ele>
        <time>2020-11-25T13:07:11+01:00</time>
      </trkpt>
      <trkpt lat="49.78075" lon="5.03836">
        <ele>359</ele>
        <time>2020-11-25T13:07:30+01:00</time>
      </trkpt>
      <trkpt lat="49.78064" lon="5.03805">
        <ele>362</ele>
        <time>2020-11-25T13:07:53+01:00</time>
      </trkpt>
      <trkpt lat="49.78048" lon="5.03779">
        <ele>365</ele>
        <time>2020-11-25T13:08:16+01:00</time>
      </trkpt>
      <trkpt lat="49.78038" lon="5.03746">
        <ele>368</ele>
        <time>2020-11-25T13:08:39+01:00</time>
      </trkpt>
      <trkpt lat="49.78025" lon="5.03716">
        <ele>370</ele>
        <time>2020-11-25T13:09:09+01:00</time>
      </trkpt>
      <trkpt lat="49.78017" lon="5.03682">
        <ele>372</ele>
        <time>2020-11-25T13:09:35+01:00</time>
      </trkpt>
      <trkpt lat="49.78004" lon="5.03653">
        <ele>374</ele>
        <time>2020-11-25T13:10:00+01:00</time>
      </trkpt>
      <trkpt lat="49.77987" lon="5.03629">
        <ele>373</ele>
        <time>2020-11-25T13:10:21+01:00</time>
      </trkpt>
      <trkpt lat="49.77965" lon="5.03635">
        <ele>368</ele>
        <time>2020-11-25T13:11:49+01:00</time>
      </trkpt>
      <trkpt lat="49.77942" lon="5.03635">
        <ele>364</ele>
        <time>2020-11-25T13:12:16+01:00</time>
      </trkpt>
      <trkpt lat="49.77919" lon="5.03646">
        <ele>359</ele>
        <time>2020-11-25T13:12:42+01:00</time>
      </trkpt>
      <trkpt lat="49.77898" lon="5.03663">
        <ele>355</ele>
        <time>2020-11-25T13:12:58+01:00</time>
      </trkpt>
      <trkpt lat="49.77901" lon="5.03698">
        <ele>353</ele>
        <time>2020-11-25T13:13:23+01:00</time>
      </trkpt>
      <trkpt lat="49.77904" lon="5.03734">
        <ele>350</ele>
        <time>2020-11-25T13:13:42+01:00</time>
      </trkpt>
      <trkpt lat="49.77906" lon="5.0377">
        <ele>347</ele>
        <time>2020-11-25T13:14:04+01:00</time>
      </trkpt>
      <trkpt lat="49.77907" lon="5.03805">
        <ele>344</ele>
        <time>2020-11-25T13:14:26+01:00</time>
      </trkpt>
      <trkpt lat="49.7791" lon="5.03841">
        <ele>342</ele>
        <time>2020-11-25T13:14:48+01:00</time>
      </trkpt>
      <trkpt lat="49.77912" lon="5.03877">
        <ele>340</ele>
        <time>2020-11-25T13:15:12+01:00</time>
      </trkpt>
      <trkpt lat="49.77925" lon="5.03909">
        <ele>339</ele>
        <time>2020-11-25T13:15:33+01:00</time>
      </trkpt>
      <trkpt lat="49.77938" lon="5.03938">
        <ele>338</ele>
        <time>2020-11-25T13:16:58+01:00</time>
      </trkpt>
      <trkpt lat="49.77947" lon="5.0397">
        <ele>336</ele>
        <time>2020-11-25T13:17:21+01:00</time>
      </trkpt>
      <trkpt lat="49.7796" lon="5.04">
        <ele>333</ele>
        <time>2020-11-25T13:17:39+01:00</time>
      </trkpt>
      <trkpt lat="49.77968" lon="5.04033">
        <ele>331</ele>
        <time>2020-11-25T13:17:57+01:00</time>
      </trkpt>
      <trkpt lat="49.7798" lon="5.04063">
        <ele>329</ele>
        <time>2020-11-25T13:18:24+01:00</time>
      </trkpt>
      <trkpt lat="49.77994" lon="5.04092">
        <ele>326</ele>
        <time>2020-11-25T13:18:57+01:00</time>
      </trkpt>
      <trkpt lat="49.78009" lon="5.04117">
        <ele>324</ele>
        <time>2020-11-25T13:19:09+01:00</time>
      </trkpt>
      <trkpt lat="49.78023" lon="5.04146">
        <ele>321</ele>
        <time>2020-11-25T13:19:31+01:00</time>
      </trkpt>
      <trkpt lat="49.7803" lon="5.04179">
        <ele>320</ele>
        <time>2020-11-25T13:20:23+01:00</time>
      </trkpt>
      <trkpt lat="49.78036" lon="5.04213">
        <ele>321</ele>
        <time>2020-11-25T13:20:53+01:00</time>
      </trkpt>
      <trkpt lat="49.78045" lon="5.04247">
        <ele>320</ele>
        <time>2020-11-25T13:21:08+01:00</time>
      </trkpt>
      <trkpt lat="49.7806" lon="5.04275">
        <ele>319</ele>
        <time>2020-11-25T13:21:20+01:00</time>
      </trkpt>
      <trkpt lat="49.78072" lon="5.04306">
        <ele>321</ele>
        <time>2020-11-25T13:21:39+01:00</time>
      </trkpt>
      <trkpt lat="49.78087" lon="5.04333">
        <ele>321</ele>
        <time>2020-11-25T13:22:01+01:00</time>
      </trkpt>
      <trkpt lat="49.78103" lon="5.04358">
        <ele>319</ele>
        <time>2020-11-25T13:22:19+01:00</time>
      </trkpt>
      <trkpt lat="49.78114" lon="5.04391">
        <ele>320</ele>
        <time>2020-11-25T13:22:38+01:00</time>
      </trkpt>
      <trkpt lat="49.78119" lon="5.04427">
        <ele>323</ele>
        <time>2020-11-25T13:23:02+01:00</time>
      </trkpt>
      <trkpt lat="49.78124" lon="5.04462">
        <ele>324</ele>
        <time>2020-11-25T13:23:20+01:00</time>
      </trkpt>
      <trkpt lat="49.78121" lon="5.04497">
        <ele>328</ele>
        <time>2020-11-25T13:23:37+01:00</time>
      </trkpt>
      <trkpt lat="49.78112" lon="5.0453">
        <ele>330</ele>
        <time>2020-11-25T13:24:00+01:00</time>
      </trkpt>
      <trkpt lat="49.78106" lon="5.04565">
        <ele>330</ele>
        <time>2020-11-25T13:24:23+01:00</time>
      </trkpt>
      <trkpt lat="49.78096" lon="5.04596">
        <ele>330</ele>
        <time>2020-11-25T13:24:40+01:00</time>
      </trkpt>
      <trkpt lat="49.78085" lon="5.04627">
        <ele>327</ele>
        <time>2020-11-25T13:25:03+01:00</time>
      </trkpt>
      <trkpt lat="49.78074" lon="5.04659">
        <ele>325</ele>
        <time>2020-11-25T13:25:20+01:00</time>
      </trkpt>
      <trkpt lat="49.78057" lon="5.04685">
        <ele>328</ele>
        <time>2020-11-25T13:25:37+01:00</time>
      </trkpt>
      <trkpt lat="49.78039" lon="5.04705">
        <ele>331</ele>
        <time>2020-11-25T13:26:00+01:00</time>
      </trkpt>
      <trkpt lat="49.78031" lon="5.04738">
        <ele>330</ele>
        <time>2020-11-25T13:26:16+01:00</time>
      </trkpt>
      <trkpt lat="49.78029" lon="5.04773">
        <ele>333</ele>
        <time>2020-11-25T13:26:39+01:00</time>
      </trkpt>
      <trkpt lat="49.78037" lon="5.04806">
        <ele>336</ele>
        <time>2020-11-25T13:28:00+01:00</time>
      </trkpt>
      <trkpt lat="49.7806" lon="5.04815">
        <ele>335</ele>
        <time>2020-11-25T13:28:46+01:00</time>
      </trkpt>
      <trkpt lat="49.78079" lon="5.04834">
        <ele>337</ele>
        <time>2020-11-25T13:30:58+01:00</time>
      </trkpt>
      <trkpt lat="49.78103" lon="5.04834">
        <ele>338</ele>
        <time>2020-11-25T13:35:56+01:00</time>
      </trkpt>
      <trkpt lat="49.78126" lon="5.04822">
        <ele>336</ele>
        <time>2020-11-25T13:36:08+01:00</time>
      </trkpt>
      <trkpt lat="49.78148" lon="5.0481">
        <ele>335</ele>
        <time>2020-11-25T13:36:29+01:00</time>
      </trkpt>
      <trkpt lat="49.78169" lon="5.04797">
        <ele>333</ele>
        <time>2020-11-25T13:36:50+01:00</time>
      </trkpt>
      <trkpt lat="49.78191" lon="5.04786">
        <ele>334</ele>
        <time>2020-11-25T13:37:05+01:00</time>
      </trkpt>
      <trkpt lat="49.78209" lon="5.04765">
        <ele>332</ele>
        <time>2020-11-25T13:37:28+01:00</time>
      </trkpt>
      <trkpt lat="49.78229" lon="5.04744">
        <ele>331</ele>
        <time>2020-11-25T13:37:42+01:00</time>
      </trkpt>
      <trkpt lat="49.78247" lon="5.04723">
        <ele>329</ele>
        <time>2020-11-25T13:37:59+01:00</time>
      </trkpt>
      <trkpt lat="49.78265" lon="5.04701">
        <ele>327</ele>
        <time>2020-11-25T13:38:15+01:00</time>
      </trkpt>
      <trkpt lat="49.78286" lon="5.04684">
        <ele>327</ele>
        <time>2020-11-25T13:38:33+01:00</time>
      </trkpt>
      <trkpt lat="49.78307" lon="5.04669">
        <ele>327</ele>
        <time>2020-11-25T13:38:53+01:00</time>
      </trkpt>
      <trkpt lat="49.78327" lon="5.04649">
        <ele>326</ele>
        <time>2020-11-25T13:39:10+01:00</time>
      </trkpt>
      <trkpt lat="49.78349" lon="5.04635">
        <ele>323</ele>
        <time>2020-11-25T13:39:27+01:00</time>
      </trkpt>
      <trkpt lat="49.78372" lon="5.04629">
        <ele>322</ele>
        <time>2020-11-25T13:39:51+01:00</time>
      </trkpt>
      <trkpt lat="49.78393" lon="5.04615">
        <ele>319</ele>
        <time>2020-11-25T13:40:04+01:00</time>
      </trkpt>
      <trkpt lat="49.78416" lon="5.04615">
        <ele>320</ele>
        <time>2020-11-25T13:40:23+01:00</time>
      </trkpt>
      <trkpt lat="49.78435" lon="5.04633">
        <ele>321</ele>
        <time>2020-11-25T13:40:49+01:00</time>
      </trkpt>
      <trkpt lat="49.78454" lon="5.04656">
        <ele>325</ele>
        <time>2020-11-25T13:41:09+01:00</time>
      </trkpt>
      <trkpt lat="49.78472" lon="5.04679">
        <ele>328</ele>
        <time>2020-11-25T13:41:23+01:00</time>
      </trkpt>
      <trkpt lat="49.78493" lon="5.04694">
        <ele>328</ele>
        <time>2020-11-25T13:41:37+01:00</time>
      </trkpt>
      <trkpt lat="49.78517" lon="5.0471">
        <ele>326</ele>
        <time>2020-11-25T13:41:54+01:00</time>
      </trkpt>
      <trkpt lat="49.7854" lon="5.04717">
        <ele>323</ele>
        <time>2020-11-25T13:42:12+01:00</time>
      </trkpt>
      <trkpt lat="49.78562" lon="5.04729">
        <ele>322</ele>
        <time>2020-11-25T13:42:30+01:00</time>
      </trkpt>
      <trkpt lat="49.78583" lon="5.04742">
        <ele>322</ele>
        <time>2020-11-25T13:42:41+01:00</time>
      </trkpt>
      <trkpt lat="49.78604" lon="5.04757">
        <ele>321</ele>
        <time>2020-11-25T13:42:57+01:00</time>
      </trkpt>
      <trkpt lat="49.78626" lon="5.0477">
        <ele>320</ele>
        <time>2020-11-25T13:43:14+01:00</time>
      </trkpt>
      <trkpt lat="49.78645" lon="5.0479">
        <ele>320</ele>
        <time>2020-11-25T13:43:40+01:00</time>
      </trkpt>
      <trkpt lat="49.78667" lon="5.04802">
        <ele>318</ele>
        <time>2020-11-25T13:43:55+01:00</time>
      </trkpt>
      <trkpt lat="49.78688" lon="5.0482">
        <ele>319</ele>
        <time>2020-11-25T13:44:11+01:00</time>
      </trkpt>
      <trkpt lat="49.78711" lon="5.0483">
        <ele>318</ele>
        <time>2020-11-25T13:44:28+01:00</time>
      </trkpt>
      <trkpt lat="49.78729" lon="5.04852">
        <ele>320</ele>
        <time>2020-11-25T13:44:47+01:00</time>
      </trkpt>
      <trkpt lat="49.7875" lon="5.0487">
        <ele>320</ele>
        <time>2020-11-25T13:45:10+01:00</time>
      </trkpt>
      <trkpt lat="49.78767" lon="5.04896">
        <ele>321</ele>
        <time>2020-11-25T13:45:23+01:00</time>
      </trkpt>
      <trkpt lat="49.78786" lon="5.04915">
        <ele>321</ele>
        <time>2020-11-25T13:45:38+01:00</time>
      </trkpt>
      <trkpt lat="49.78808" lon="5.04928">
        <ele>319</ele>
        <time>2020-11-25T13:45:56+01:00</time>
      </trkpt>
      <trkpt lat="49.78827" lon="5.04961">
        <ele>316</ele>
        <time>2020-11-25T13:46:16+01:00</time>
      </trkpt>
      <trkpt lat="49.78808" lon="5.04977">
        <ele>320</ele>
        <time>2020-11-25T13:48:03+01:00</time>
      </trkpt>
      <trkpt lat="49.78794" lon="5.05001">
        <ele>323</ele>
        <time>2020-11-25T13:48:41+01:00</time>
      </trkpt>
      <trkpt lat="49.78777" lon="5.05021">
        <ele>325</ele>
        <time>2020-11-25T13:48:56+01:00</time>
      </trkpt>
      <trkpt lat="49.78757" lon="5.05043">
        <ele>329</ele>
        <time>2020-11-25T13:49:11+01:00</time>
      </trkpt>
      <trkpt lat="49.78745" lon="5.05074">
        <ele>330</ele>
        <time>2020-11-25T13:49:36+01:00</time>
      </trkpt>
      <trkpt lat="49.78728" lon="5.051">
        <ele>331</ele>
        <time>2020-11-25T13:49:49+01:00</time>
      </trkpt>
      <trkpt lat="49.78722" lon="5.05134">
        <ele>329</ele>
        <time>2020-11-25T13:50:02+01:00</time>
      </trkpt>
      <trkpt lat="49.78718" lon="5.05168">
        <ele>327</ele>
        <time>2020-11-25T13:50:18+01:00</time>
      </trkpt>
      <trkpt lat="49.78704" lon="5.05197">
        <ele>328</ele>
        <time>2020-11-25T13:50:34+01:00</time>
      </trkpt>
      <trkpt lat="49.78687" lon="5.05222">
        <ele>331</ele>
        <time>2020-11-25T13:50:57+01:00</time>
      </trkpt>
      <trkpt lat="49.78664" lon="5.05232">
        <ele>335</ele>
        <time>2020-11-25T13:51:13+01:00</time>
      </trkpt>
      <trkpt lat="49.7864" lon="5.05226">
        <ele>334</ele>
        <time>2020-11-25T13:51:29+01:00</time>
      </trkpt>
      <trkpt lat="49.78618" lon="5.05216">
        <ele>334</ele>
        <time>2020-11-25T13:51:46+01:00</time>
      </trkpt>
      <trkpt lat="49.78595" lon="5.05218">
        <ele>333</ele>
        <time>2020-11-25T13:52:12+01:00</time>
      </trkpt>
      <trkpt lat="49.78572" lon="5.05208">
        <ele>335</ele>
        <time>2020-11-25T13:53:08+01:00</time>
      </trkpt>
      <trkpt lat="49.78552" lon="5.05222">
        <ele>334</ele>
        <time>2020-11-25T13:53:37+01:00</time>
      </trkpt>
      <trkpt lat="49.78528" lon="5.05219">
        <ele>337</ele>
        <time>2020-11-25T13:53:51+01:00</time>
      </trkpt>
      <trkpt lat="49.78506" lon="5.05225">
        <ele>338</ele>
        <time>2020-11-25T13:54:08+01:00</time>
      </trkpt>
      <trkpt lat="49.78483" lon="5.05232">
        <ele>339</ele>
        <time>2020-11-25T13:54:26+01:00</time>
      </trkpt>
      <trkpt lat="49.78463" lon="5.05252">
        <ele>338</ele>
        <time>2020-11-25T13:54:44+01:00</time>
      </trkpt>
      <trkpt lat="49.78442" lon="5.05267">
        <ele>340</ele>
        <time>2020-11-25T13:55:00+01:00</time>
      </trkpt>
      <trkpt lat="49.78431" lon="5.05299">
        <ele>341</ele>
        <time>2020-11-25T13:55:20+01:00</time>
      </trkpt>
      <trkpt lat="49.78424" lon="5.05312">
        <ele>343</ele>
        <time>2020-11-25T13:55:33+01:00</time>
      </trkpt>
      <trkpt lat="49.7842" lon="5.05356">
        <ele>345</ele>
        <time>2020-11-25T13:55:49+01:00</time>
      </trkpt>
      <trkpt lat="49.78428" lon="5.05403">
        <ele>345</ele>
        <time>2020-11-25T13:56:08+01:00</time>
      </trkpt>
      <trkpt lat="49.78434" lon="5.05436">
        <ele>344</ele>
        <time>2020-11-25T13:56:25+01:00</time>
      </trkpt>
      <trkpt lat="49.78451" lon="5.05472">
        <ele>338</ele>
        <time>2020-11-25T13:56:44+01:00</time>
      </trkpt>
      <trkpt lat="49.78468" lon="5.05498">
        <ele>333</ele>
        <time>2020-11-25T13:57:05+01:00</time>
      </trkpt>
      <trkpt lat="49.78485" lon="5.05521">
        <ele>327</ele>
        <time>2020-11-25T13:59:37+01:00</time>
      </trkpt>
      <trkpt lat="49.78494" lon="5.05517">
        <ele>323</ele>
        <time>2020-11-25T14:01:43+01:00</time>
      </trkpt>
      <trkpt lat="49.78506" lon="5.05548">
        <ele>320</ele>
        <time>2020-11-25T14:02:02+01:00</time>
      </trkpt>
      <trkpt lat="49.78518" lon="5.05578">
        <ele>319</ele>
        <time>2020-11-25T14:02:21+01:00</time>
      </trkpt>
      <trkpt lat="49.78536" lon="5.05601">
        <ele>317</ele>
        <time>2020-11-25T14:02:44+01:00</time>
      </trkpt>
      <trkpt lat="49.78562" lon="5.05606">
        <ele>314</ele>
        <time>2020-11-25T14:02:55+01:00</time>
      </trkpt>
      <trkpt lat="49.78582" lon="5.05615">
        <ele>312</ele>
        <time>2020-11-25T14:03:24+01:00</time>
      </trkpt>
      <trkpt lat="49.78604" lon="5.05626">
        <ele>310</ele>
        <time>2020-11-25T14:03:42+01:00</time>
      </trkpt>
      <trkpt lat="49.78626" lon="5.05631">
        <ele>307</ele>
        <time>2020-11-25T14:04:20+01:00</time>
      </trkpt>
      <trkpt lat="49.78647" lon="5.05644">
        <ele>305</ele>
        <time>2020-11-25T14:05:09+01:00</time>
      </trkpt>
      <trkpt lat="49.78669" lon="5.05657">
        <ele>305</ele>
        <time>2020-11-25T14:05:31+01:00</time>
      </trkpt>
      <trkpt lat="49.78685" lon="5.05684">
        <ele>306</ele>
        <time>2020-11-25T14:05:57+01:00</time>
      </trkpt>
      <trkpt lat="49.78699" lon="5.05712">
        <ele>308</ele>
        <time>2020-11-25T14:06:20+01:00</time>
      </trkpt>
      <trkpt lat="49.78719" lon="5.05729">
        <ele>306</ele>
        <time>2020-11-25T14:06:36+01:00</time>
      </trkpt>
      <trkpt lat="49.78727" lon="5.05763">
        <ele>308</ele>
        <time>2020-11-25T14:06:59+01:00</time>
      </trkpt>
      <trkpt lat="49.78727" lon="5.05798">
        <ele>311</ele>
        <time>2020-11-25T14:07:52+01:00</time>
      </trkpt>
      <trkpt lat="49.78737" lon="5.05831">
        <ele>312</ele>
        <time>2020-11-25T14:08:11+01:00</time>
      </trkpt>
      <trkpt lat="49.78737" lon="5.05867">
        <ele>315</ele>
        <time>2020-11-25T14:08:36+01:00</time>
      </trkpt>
      <trkpt lat="49.78749" lon="5.05897">
        <ele>316</ele>
        <time>2020-11-25T14:08:58+01:00</time>
      </trkpt>
      <trkpt lat="49.78757" lon="5.05931">
        <ele>314</ele>
        <time>2020-11-25T14:09:25+01:00</time>
      </trkpt>
      <trkpt lat="49.7876" lon="5.05966">
        <ele>312</ele>
        <time>2020-11-25T14:09:53+01:00</time>
      </trkpt>
      <trkpt lat="49.78763" lon="5.06001">
        <ele>309</ele>
        <time>2020-11-25T14:10:14+01:00</time>
      </trkpt>
      <trkpt lat="49.78778" lon="5.06036">
        <ele>300</ele>
        <time>2020-11-25T14:10:54+01:00</time>
      </trkpt>
      <trkpt lat="49.78784" lon="5.06061">
        <ele>297</ele>
        <time>2020-11-25T14:11:17+01:00</time>
      </trkpt>
      <trkpt lat="49.78786" lon="5.06096">
        <ele>294</ele>
        <time>2020-11-25T14:11:34+01:00</time>
      </trkpt>
      <trkpt lat="49.78779" lon="5.0613">
        <ele>291</ele>
        <time>2020-11-25T14:11:49+01:00</time>
      </trkpt>
      <trkpt lat="49.78768" lon="5.0616">
        <ele>289</ele>
        <time>2020-11-25T14:12:09+01:00</time>
      </trkpt>
      <trkpt lat="49.78787" lon="5.0618">
        <ele>288</ele>
        <time>2020-11-25T14:12:51+01:00</time>
      </trkpt>
      <trkpt lat="49.78809" lon="5.06185">
        <ele>289</ele>
        <time>2020-11-25T14:13:11+01:00</time>
      </trkpt>
      <trkpt lat="49.7883" lon="5.062">
        <ele>290</ele>
        <time>2020-11-25T14:13:35+01:00</time>
      </trkpt>
      <trkpt lat="49.78847" lon="5.06223">
        <ele>291</ele>
        <time>2020-11-25T14:14:03+01:00</time>
      </trkpt>
      <trkpt lat="49.78861" lon="5.06228">
        <ele>293</ele>
        <time>2020-11-25T14:14:59+01:00</time>
      </trkpt>
      <trkpt lat="49.78875" lon="5.06205">
        <ele>294</ele>
        <time>2020-11-25T14:15:45+01:00</time>
      </trkpt>
      <trkpt lat="49.78889" lon="5.06206">
        <ele>296</ele>
        <time>2021-06-05T16:31:31+02:00</time>
      </trkpt>
      <trkpt lat="49.78908" lon="5.06222">
        <ele>299</ele>
        <time>2020-11-25T14:16:09+01:00</time>
      </trkpt>
      <trkpt lat="49.78941" lon="5.06278">
        <ele>292</ele>
        <time>2020-11-25T14:16:42+01:00</time>
      </trkpt>
      <trkpt lat="49.78973" lon="5.06263">
        <ele>290</ele>
        <time>2021-06-05T16:31:46+02:00</time>
      </trkpt>
      <trkpt lat="49.7901" lon="5.06284">
        <ele>279</ele>
        <time>2021-06-05T16:31:51+02:00</time>
      </trkpt>
      <trkpt lat="49.79024" lon="5.06291">
        <ele>275</ele>
        <time>2021-06-05T16:31:56+02:00</time>
      </trkpt>
      <trkpt lat="49.79051" lon="5.06306">
        <ele>269</ele>
        <time>2021-06-05T16:32:01+02:00</time>
      </trkpt>
      <trkpt lat="49.79078" lon="5.06305">
        <ele>266</ele>
        <time>2021-06-05T16:32:06+02:00</time>
      </trkpt>
      <trkpt lat="49.79098" lon="5.06315">
        <ele>260</ele>
        <time>2021-06-05T16:32:11+02:00</time>
      </trkpt>
      <trkpt lat="49.79084" lon="5.06283">
        <ele>264</ele>
        <time>2021-06-05T16:32:16+02:00</time>
      </trkpt>
      <trkpt lat="49.79071" lon="5.06262">
        <ele>267</ele>
        <time>2021-06-05T16:32:21+02:00</time>
      </trkpt>
      <trkpt lat="49.79089" lon="5.0625">
        <ele>260</ele>
        <time>2021-06-05T16:32:26+02:00</time>
      </trkpt>
      <trkpt lat="49.79076" lon="5.06235">
        <ele>261</ele>
        <time>2021-06-05T16:32:31+02:00</time>
      </trkpt>
      <trkpt lat="49.79069" lon="5.06212">
        <ele>258</ele>
        <time>2021-06-05T16:32:36+02:00</time>
      </trkpt>
      <trkpt lat="49.79085" lon="5.06213">
        <ele>251</ele>
        <time>2021-06-05T16:32:41+02:00</time>
      </trkpt>
      <trkpt lat="49.79061" lon="5.06147">
        <ele>243</ele>
        <time>2021-06-05T16:32:46+02:00</time>
      </trkpt>
      <trkpt lat="49.79065" lon="5.06132">
        <ele>238</ele>
        <time>2021-06-05T16:32:51+02:00</time>
      </trkpt>
      <trkpt lat="49.79118" lon="5.06224">
        <ele>239</ele>
        <time>2021-06-05T16:32:56+02:00</time>
      </trkpt>
      <trkpt lat="49.79159" lon="5.06278">
        <ele>227</ele>
        <time>2021-06-05T16:33:01+02:00</time>
      </trkpt>
      <trkpt lat="49.79189" lon="5.06311">
        <ele>226</ele>
        <time>2021-06-05T16:33:06+02:00</time>
      </trkpt>
      <trkpt lat="49.79196" lon="5.06331">
        <ele>228</ele>
        <time>2021-06-05T16:33:11+02:00</time>
      </trkpt>
      <trkpt lat="49.79209" lon="5.06335">
        <ele>226</ele>
        <time>2021-06-05T16:33:16+02:00</time>
      </trkpt>
      <trkpt lat="49.7924" lon="5.06365">
        <ele>223</ele>
        <time>2021-06-05T16:33:21+02:00</time>
      </trkpt>
      <trkpt lat="49.79301" lon="5.06457">
        <ele>226</ele>
        <time>2021-06-05T16:33:26+02:00</time>
      </trkpt>
      <trkpt lat="49.79338" lon="5.06494">
        <ele>223</ele>
        <time>2021-06-05T16:33:31+02:00</time>
      </trkpt>
      <trkpt lat="49.79445" lon="5.06527">
        <ele>219</ele>
        <time>2021-06-05T16:33:36+02:00</time>
      </trkpt>
      <trkpt lat="49.7944" lon="5.06399">
        <ele>230</ele>
        <time>2021-06-05T16:33:41+02:00</time>
      </trkpt>
      <trkpt lat="49.79427" lon="5.064">
        <ele>229</ele>
        <time>2020-11-25T14:16:57+01:00</time>
      </trkpt>
    </trkseg>
  </trk>
</gpx>